createdAt,value
2022-12-22T00:01:05.610Z,15.13
2022-12-22T00:03:51.657Z,14.87
2022-12-22T00:06:37.485Z,15.73
2022-12-22T00:09:22.892Z,15.07
2022-12-22T00:12:09.744Z,13.83
2022-12-22T00:14:55.144Z,15.20
2022-12-22T00:17:44.479Z,14.57
2022-12-22T00:20:34.769Z,14.20
2022-12-22T00:23:20.464Z,14.10
2022-12-22T00:26:06.928Z,14.00
2022-12-22T00:28:55.305Z,14.60
2022-12-22T00:31:41.579Z,14.83
2022-12-22T00:34:33.111Z,14.10
2022-12-22T00:37:18.602Z,14.03
2022-12-22T00:40:03.963Z,13.27
2022-12-22T00:42:49.606Z,13.77
2022-12-22T00:45:36.553Z,14.00
2022-12-22T00:48:22.611Z,14.37
2022-12-22T00:51:08.306Z,14.30
2022-12-22T00:53:54.127Z,14.20
2022-12-22T00:56:39.890Z,15.43
2022-12-22T00:59:28.529Z,15.63
2022-12-22T01:02:15.761Z,15.07
2022-12-22T01:05:01.586Z,13.93
2022-12-22T01:07:47.150Z,14.03
2022-12-22T01:10:34.118Z,14.20
2022-12-22T01:13:19.966Z,13.33
2022-12-22T01:16:05.299Z,14.43
2022-12-22T01:18:52.068Z,14.67
2022-12-22T01:21:38.418Z,15.07
2022-12-22T01:24:29.696Z,14.53
2022-12-22T01:27:14.979Z,13.57
2022-12-22T01:30:00.695Z,14.17
2022-12-22T01:32:46.328Z,14.73
2022-12-22T01:35:39.079Z,13.87
2022-12-22T01:38:24.879Z,14.53
2022-12-22T01:41:11.673Z,13.40
2022-12-22T01:43:57.681Z,13.80
2022-12-22T01:46:45.159Z,14.00
2022-12-22T01:49:34.194Z,14.17
2022-12-22T01:52:21.637Z,14.67
2022-12-22T01:55:07.895Z,13.90
2022-12-22T01:57:54.242Z,14.57
2022-12-22T02:00:40.075Z,13.67
2022-12-22T02:03:34.696Z,14.83
2022-12-22T02:06:40.582Z,14.80
2022-12-22T02:09:45.902Z,13.40
2022-12-22T02:12:43.082Z,14.20
2022-12-22T02:15:36.881Z,14.23
2022-12-22T02:18:27.458Z,14.27
2022-12-22T02:21:19.357Z,15.00
2022-12-22T02:24:30.222Z,16.63
2022-12-22T02:27:20.010Z,12.83
2022-12-22T02:30:10.519Z,14.33
2022-12-22T02:33:05.204Z,13.30
2022-12-22T02:36:00.224Z,14.87
2022-12-22T02:38:55.478Z,13.53
2022-12-22T02:41:51.380Z,14.67
2022-12-22T02:44:46.276Z,15.17
2022-12-22T02:47:39.087Z,16.83
2022-12-22T02:50:35.342Z,15.33
2022-12-22T02:53:22.143Z,15.87
2022-12-22T02:56:08.042Z,16.03
2022-12-22T02:58:53.604Z,14.97
2022-12-22T03:01:40.822Z,15.43
2022-12-22T03:04:26.736Z,15.43
2022-12-22T03:07:12.130Z,16.60
2022-12-22T03:09:57.632Z,14.90
2022-12-22T03:12:42.916Z,15.67
2022-12-22T03:15:28.583Z,15.63
2022-12-22T03:18:20.304Z,16.47
2022-12-22T03:21:05.854Z,16.40
2022-12-22T03:23:51.177Z,16.27
2022-12-22T03:26:19.452Z,15.37
2022-12-22T03:28:48.049Z,16.53
2022-12-22T03:31:16.338Z,15.53
2022-12-22T03:33:46.003Z,14.67
2022-12-22T03:36:14.234Z,14.57
2022-12-22T03:38:42.386Z,15.23
2022-12-22T03:41:31.247Z,15.88
2022-12-22T03:44:22.324Z,15.07
2022-12-22T03:46:50.463Z,14.60
2022-12-22T03:49:22.469Z,15.43
2022-12-22T03:51:51.996Z,14.67
2022-12-22T03:54:22.695Z,15.97
2022-12-22T03:56:51.814Z,14.47
2022-12-22T03:59:20.528Z,14.77
2022-12-22T04:01:51.627Z,13.93
2022-12-22T04:04:23.378Z,13.53
2022-12-22T04:06:51.940Z,14.83
2022-12-22T04:09:22.204Z,15.57
2022-12-22T04:12:07.996Z,14.83
2022-12-22T04:14:36.311Z,14.60
2022-12-22T04:17:05.103Z,15.63
2022-12-22T04:19:34.898Z,14.57
2022-12-22T04:22:03.159Z,14.30
2022-12-22T04:24:31.434Z,13.00
2022-12-22T04:26:59.632Z,15.00
2022-12-22T04:29:27.784Z,14.67
2022-12-22T04:31:56.190Z,15.37
2022-12-22T04:34:24.522Z,14.17
2022-12-22T04:36:54.330Z,15.47
2022-12-22T04:39:22.542Z,14.93
2022-12-22T04:41:50.705Z,15.23
2022-12-22T04:44:18.898Z,16.07
2022-12-22T04:46:47.540Z,14.57
2022-12-22T04:49:15.724Z,15.20
2022-12-22T04:51:43.818Z,14.67
2022-12-22T04:54:13.848Z,14.17
2022-12-22T04:56:42.072Z,14.33
2022-12-22T04:59:10.316Z,14.13
2022-12-22T05:01:38.648Z,14.00
2022-12-22T05:04:06.854Z,14.97
2022-12-22T05:06:35.212Z,15.47
2022-12-22T05:09:03.551Z,15.73
2022-12-22T05:11:33.229Z,15.73
2022-12-22T05:14:07.008Z,14.10
2022-12-22T05:16:35.826Z,16.00
2022-12-22T05:19:04.134Z,16.27
2022-12-22T05:21:32.339Z,14.23
2022-12-22T05:24:00.556Z,15.88
2022-12-22T05:26:28.972Z,14.03
2022-12-22T05:28:58.697Z,15.63
2022-12-22T05:31:27.669Z,15.60
2022-12-22T05:33:55.949Z,15.33
2022-12-22T05:36:24.139Z,15.00
2022-12-22T05:38:52.515Z,15.50
2022-12-22T05:41:20.774Z,15.30
2022-12-22T05:43:48.976Z,15.67
2022-12-22T05:46:18.674Z,15.23
2022-12-22T05:48:46.953Z,15.93
2022-12-22T05:51:15.055Z,15.53
2022-12-22T05:53:43.463Z,15.40
2022-12-22T05:56:11.729Z,14.70
2022-12-22T05:58:40.752Z,13.50
2022-12-22T06:01:09.296Z,13.97
2022-12-22T06:03:39.091Z,15.37
2022-12-22T06:06:07.842Z,13.50
2022-12-22T06:08:35.997Z,14.57
2022-12-22T06:11:04.263Z,15.40
2022-12-22T06:13:32.455Z,14.50
2022-12-22T06:16:00.796Z,15.50
2022-12-22T06:18:29.427Z,15.97
2022-12-22T06:20:59.039Z,15.33
2022-12-22T06:23:27.275Z,15.43
2022-12-22T06:25:56.961Z,15.97
2022-12-22T06:28:25.643Z,14.13
2022-12-22T06:30:53.872Z,15.03
2022-12-22T06:33:22.413Z,15.13
2022-12-22T06:35:57.536Z,15.27
2022-12-22T06:38:28.552Z,14.57
2022-12-22T06:40:57.023Z,15.37
2022-12-22T06:43:24.129Z,15.20
2022-12-22T06:45:52.474Z,14.30
2022-12-22T06:48:20.949Z,16.43
2022-12-22T06:50:49.240Z,13.93
2022-12-22T06:53:17.955Z,14.03
2022-12-22T06:55:47.798Z,14.30
2022-12-22T06:58:16.079Z,13.20
2022-12-22T07:00:45.551Z,15.07
2022-12-22T07:03:14.028Z,15.37
2022-12-22T07:05:42.376Z,14.30
2022-12-22T07:08:10.659Z,14.53
2022-12-22T07:10:56.152Z,15.37
2022-12-22T07:13:27.516Z,14.63
2022-12-22T07:16:00.451Z,15.33
2022-12-22T07:18:30.248Z,13.93
2022-12-22T07:20:58.677Z,15.33
2022-12-22T07:23:27.161Z,13.80
2022-12-22T07:25:55.422Z,15.90
2022-12-22T07:28:25.357Z,16.17
2022-12-22T07:30:54.314Z,15.93
2022-12-22T07:33:22.932Z,17.13
2022-12-22T07:36:01.346Z,16.03
2022-12-22T07:38:29.538Z,17.23
2022-12-22T07:41:04.997Z,16.93
2022-12-22T07:43:34.652Z,17.23
2022-12-22T07:46:02.983Z,18.73
2022-12-22T07:48:48.633Z,18.27
2022-12-22T07:51:16.908Z,17.53
2022-12-22T07:53:45.170Z,17.97
2022-12-22T07:56:13.394Z,16.57
2022-12-22T07:58:43.083Z,17.80
2022-12-22T08:01:11.322Z,20.23
2022-12-22T08:03:39.451Z,18.27
2022-12-22T08:06:08.622Z,17.30
2022-12-22T08:08:36.942Z,18.67
2022-12-22T08:11:05.588Z,20.17
2022-12-22T08:13:34.182Z,17.23
2022-12-22T08:16:06.811Z,18.97
2022-12-22T08:18:35.817Z,17.83
2022-12-22T08:21:05.262Z,16.80
2022-12-22T08:23:33.673Z,15.30
2022-12-22T08:26:05.596Z,16.53
2022-12-22T08:28:39.425Z,16.13
2022-12-22T08:31:09.474Z,17.30
2022-12-22T08:33:37.984Z,16.67
2022-12-22T08:36:08.724Z,19.10
2022-12-22T08:38:37.725Z,18.47
2022-12-22T08:41:06.359Z,18.40
2022-12-22T08:43:35.014Z,18.73
2022-12-22T08:46:03.433Z,18.47
2022-12-22T08:48:33.236Z,17.43
2022-12-22T08:51:01.588Z,19.20
2022-12-22T08:54:03.074Z,18.83
2022-12-22T08:56:18.005Z,15.90
2022-12-22T08:58:46.188Z,18.37
2022-12-22T09:01:18.322Z,16.30
2022-12-22T09:03:51.582Z,15.07
2022-12-22T09:06:26.540Z,16.40
2022-12-22T09:08:56.336Z,18.40
2022-12-22T09:11:25.033Z,15.80
2022-12-22T09:13:54.119Z,18.50
2022-12-22T09:16:23.678Z,19.27
2022-12-22T09:18:53.658Z,16.47
2022-12-22T09:21:21.840Z,16.77
2022-12-22T09:23:50.044Z,19.57
2022-12-22T09:26:21.553Z,19.80
2022-12-22T09:28:50.682Z,19.13
2022-12-22T09:31:19.934Z,17.73
2022-12-22T09:33:48.499Z,19.40
2022-12-22T09:36:20.487Z,18.97
2022-12-22T09:38:48.728Z,18.00
2022-12-22T09:41:19.914Z,17.97
2022-12-22T09:43:48.766Z,18.50
2022-12-22T09:46:22.832Z,16.93
2022-12-22T09:48:51.671Z,19.23
2022-12-22T09:51:26.799Z,18.00
2022-12-22T09:53:59.201Z,17.70
2022-12-22T09:56:28.690Z,16.80
2022-12-22T09:58:58.427Z,19.53
2022-12-22T10:01:37.156Z,18.63
2022-12-22T10:04:12.885Z,17.48
2022-12-22T10:06:48.456Z,15.97
2022-12-22T10:09:48.305Z,16.13
2022-12-22T10:12:16.705Z,17.30
2022-12-22T10:14:46.963Z,17.47
2022-12-22T10:17:21.015Z,16.93
2022-12-22T10:19:50.927Z,17.40
2022-12-22T10:22:30.005Z,18.40
2022-12-22T10:24:58.924Z,19.63
2022-12-22T10:27:31.051Z,19.23
2022-12-22T10:30:21.488Z,15.50
2022-12-22T10:33:04.783Z,17.13
2022-12-22T10:35:49.921Z,14.73
2022-12-22T10:38:24.479Z,16.33
2022-12-22T10:41:01.810Z,16.70
2022-12-22T10:43:33.807Z,14.90
2022-12-22T10:46:03.452Z,14.83
2022-12-22T10:48:34.420Z,15.57
2022-12-22T10:51:03.705Z,15.57
2022-12-22T10:53:47.553Z,16.00
2022-12-22T10:56:25.187Z,14.50
2022-12-22T10:58:55.469Z,14.47
2022-12-22T11:01:29.228Z,15.93
2022-12-22T11:03:58.485Z,14.83
2022-12-22T11:06:26.774Z,16.57
2022-12-22T11:09:23.689Z,13.97
2022-12-22T11:11:51.426Z,17.07
2022-12-22T11:14:30.306Z,17.73
2022-12-22T11:17:04.405Z,16.90
2022-12-22T11:19:51.492Z,14.73
2022-12-22T11:22:32.724Z,15.00
2022-12-22T11:25:19.265Z,15.93
2022-12-22T11:28:01.281Z,14.90
2022-12-22T11:30:40.080Z,16.25
2022-12-22T11:33:23.064Z,14.53
2022-12-22T11:35:59.790Z,14.73
2022-12-22T11:38:39.863Z,16.07
2022-12-22T11:41:21.750Z,16.50
2022-12-22T11:44:00.937Z,14.63
2022-12-22T11:46:35.889Z,15.90
2022-12-22T11:49:17.487Z,14.90
2022-12-22T11:52:12.475Z,17.40
2022-12-22T11:55:00.945Z,18.15
2022-12-22T11:57:40.540Z,17.13
2022-12-22T12:00:13.220Z,17.63
2022-12-22T12:03:26.764Z,16.47
2022-12-22T12:06:30.627Z,17.17
2022-12-22T12:09:12.088Z,18.00
2022-12-22T12:11:47.244Z,16.97
2022-12-22T12:14:25.655Z,18.40
2022-12-22T12:16:59.844Z,17.60
2022-12-22T12:20:05.682Z,19.10
2022-12-22T12:22:44.646Z,17.73
2022-12-22T12:25:26.140Z,18.63
2022-12-22T12:28:07.521Z,18.65
2022-12-22T12:30:45.864Z,19.17
2022-12-22T12:33:18.420Z,18.15
2022-12-22T12:35:59.835Z,20.10
2022-12-22T12:41:31.501Z,18.45
2022-12-22T12:44:00.532Z,19.48
2022-12-22T12:47:13.612Z,19.80
2022-12-22T12:50:07.294Z,17.48
2022-12-22T12:53:18.001Z,16.73
2022-12-22T12:56:03.779Z,19.23
2022-12-22T12:58:53.063Z,17.47
2022-12-22T13:02:02.210Z,19.25
2022-12-22T13:05:13.134Z,19.52
2022-12-22T13:08:24.185Z,18.80
2022-12-22T13:11:52.633Z,16.20
2022-12-22T13:14:10.773Z,17.92
2022-12-22T13:16:40.752Z,16.58
2022-12-22T13:19:34.951Z,18.07
2022-12-22T13:22:04.035Z,18.35
2022-12-22T13:24:46.984Z,18.75
2022-12-22T13:27:17.184Z,17.38
2022-12-22T13:29:48.348Z,17.70
2022-12-22T13:32:22.342Z,19.50
2022-12-22T13:35:29.572Z,19.25
2022-12-22T13:37:48.891Z,18.48
2022-12-22T13:40:20.675Z,17.40
2022-12-22T13:42:51.708Z,19.88
2022-12-22T13:45:32.707Z,20.33
2022-12-22T13:48:03.402Z,20.73
2022-12-22T13:50:38.151Z,20.15
2022-12-22T13:53:09.307Z,20.73
2022-12-22T13:55:37.767Z,20.67
2022-12-22T13:58:09.359Z,21.42
2022-12-22T14:00:37.625Z,21.73
2022-12-22T14:03:27.782Z,20.10
2022-12-22T14:06:20.563Z,21.57
2022-12-22T14:08:48.776Z,20.00
2022-12-22T14:11:16.996Z,20.25
2022-12-22T14:13:45.458Z,23.05
2022-12-22T14:16:16.013Z,22.52
2022-12-22T14:18:44.542Z,20.33
2022-12-22T14:21:14.519Z,24.30
2022-12-22T14:23:44.257Z,22.42
2022-12-22T14:26:18.917Z,20.48
2022-12-22T14:28:53.179Z,22.13
2022-12-22T14:31:21.902Z,22.67
2022-12-22T14:33:55.371Z,22.77
2022-12-22T14:36:26.851Z,25.45
2022-12-22T14:38:56.321Z,22.57
2022-12-22T14:41:43.024Z,22.35
2022-12-22T14:44:17.276Z,22.58
2022-12-22T14:46:46.733Z,22.45
2022-12-22T14:49:17.890Z,22.30
2022-12-22T14:52:01.105Z,21.85
2022-12-22T14:54:30.047Z,20.80
2022-12-22T14:57:08.530Z,22.80
2022-12-22T14:59:41.497Z,23.15
2022-12-22T15:02:23.822Z,23.42
2022-12-22T15:05:11.273Z,21.85
2022-12-22T15:08:05.225Z,22.05
2022-12-22T15:10:39.527Z,21.70
2022-12-22T15:13:13.279Z,22.77
2022-12-22T15:15:41.594Z,23.88
2022-12-22T15:18:15.632Z,24.02
2022-12-22T15:20:43.936Z,24.80
2022-12-22T15:23:17.418Z,22.40
2022-12-22T15:25:45.968Z,23.73
2022-12-22T15:28:14.267Z,23.13
2022-12-22T15:30:42.849Z,23.60
2022-12-22T15:33:14.483Z,23.85
2022-12-22T15:35:43.774Z,22.70
2022-12-22T15:38:16.287Z,22.38
2022-12-22T15:40:45.096Z,23.00
2022-12-22T15:43:53.400Z,23.10
2022-12-22T15:46:05.074Z,23.65
2022-12-22T15:48:36.383Z,21.83
2022-12-22T15:51:06.987Z,22.20
2022-12-22T15:53:38.163Z,22.20
2022-12-22T15:56:11.149Z,20.83
2022-12-22T15:58:42.363Z,22.75
2022-12-22T16:01:11.896Z,22.10
2022-12-22T16:03:40.325Z,21.48
2022-12-22T16:06:14.387Z,24.58
2022-12-22T16:08:47.160Z,21.52
2022-12-22T16:11:15.382Z,22.65
2022-12-22T16:13:43.752Z,22.08
2022-12-22T16:16:12.260Z,23.15
2022-12-22T16:18:40.705Z,23.85
2022-12-22T16:21:14.466Z,21.02
2022-12-22T16:23:47.881Z,22.17
2022-12-22T16:26:19.237Z,20.90
2022-12-22T16:28:47.608Z,21.95
2022-12-22T16:31:21.326Z,21.85
2022-12-22T16:33:49.942Z,22.58
2022-12-22T16:36:18.474Z,19.73
2022-12-22T16:38:48.729Z,20.73
2022-12-22T16:41:23.072Z,21.38
2022-12-22T16:43:52.456Z,19.75
2022-12-22T16:46:24.048Z,20.40
2022-12-22T16:48:54.432Z,19.70
2022-12-22T16:51:25.383Z,17.10
2022-12-22T16:53:55.184Z,18.85
2022-12-22T16:56:26.900Z,18.85
2022-12-22T16:58:55.127Z,20.60
2022-12-22T17:01:31.943Z,19.52
2022-12-22T17:04:04.886Z,17.45
2022-12-22T17:06:33.464Z,20.05
2022-12-22T17:09:03.848Z,19.08
2022-12-22T17:11:32.760Z,19.90
2022-12-22T17:14:06.637Z,17.98
2022-12-22T17:16:34.981Z,20.40
2022-12-22T17:19:03.262Z,17.48
2022-12-22T17:21:31.821Z,18.20
2022-12-22T17:24:04.875Z,18.25
2022-12-22T17:26:35.553Z,17.45
2022-12-22T17:29:03.770Z,18.45
2022-12-22T17:31:32.043Z,18.60
2022-12-22T17:34:00.509Z,18.95
2022-12-22T17:36:33.199Z,20.27
2022-12-22T17:39:04.686Z,21.52
2022-12-22T17:41:33.224Z,17.98
2022-12-22T17:44:01.374Z,19.52
2022-12-22T17:46:29.671Z,20.48
2022-12-22T17:48:57.999Z,19.55
2022-12-22T17:51:29.415Z,19.08
2022-12-22T17:53:59.337Z,20.33
2022-12-22T17:56:31.791Z,19.42
2022-12-22T17:59:00.315Z,20.17
2022-12-22T18:01:30.991Z,20.02
2022-12-22T18:03:59.524Z,19.73
2022-12-22T18:06:31.430Z,18.65
2022-12-22T18:08:59.771Z,19.33
2022-12-22T18:11:29.427Z,16.55
2022-12-22T18:13:59.613Z,16.38
2022-12-22T18:16:28.576Z,16.77
2022-12-22T18:18:56.940Z,17.92
2022-12-22T18:21:26.482Z,17.95
2022-12-22T18:23:54.700Z,15.80
2022-12-22T18:26:25.538Z,17.23
2022-12-22T18:28:56.248Z,19.02
2022-12-22T18:31:25.905Z,18.35
2022-12-22T18:33:54.409Z,17.58
2022-12-22T18:36:31.993Z,17.77
2022-12-22T18:39:02.415Z,19.38
2022-12-22T18:41:32.854Z,17.42
2022-12-22T18:44:02.565Z,18.48
2022-12-22T18:46:30.839Z,14.75
2022-12-22T18:49:05.112Z,16.75
2022-12-22T18:51:33.970Z,17.63
2022-12-22T18:54:02.552Z,16.77
2022-12-22T18:56:30.728Z,15.23
2022-12-22T18:58:58.891Z,14.85
2022-12-22T19:01:29.165Z,15.15
2022-12-22T19:03:59.001Z,15.63
2022-12-22T19:06:27.280Z,16.00
2022-12-22T19:08:55.499Z,16.40
2022-12-22T19:11:28.691Z,10.98
2022-12-22T19:13:57.032Z,11.60
2022-12-22T19:16:29.053Z,12.90
2022-12-22T19:18:59.994Z,11.15
2022-12-22T19:21:28.260Z,8.77
2022-12-22T19:23:56.516Z,8.55
2022-12-22T19:26:27.119Z,6.38
2022-12-22T19:28:57.317Z,4.75
2022-12-22T19:31:30.379Z,3.40
2022-12-22T19:34:00.678Z,3.53
2022-12-22T19:36:31.384Z,2.58
2022-12-22T19:39:04.731Z,2.45
2022-12-22T19:41:46.108Z,2.90
2022-12-22T19:44:20.527Z,2.38
2022-12-22T19:46:50.877Z,1.90
2022-12-22T19:49:21.302Z,2.85
2022-12-22T19:51:50.148Z,2.45
2022-12-22T19:54:19.543Z,2.25
2022-12-22T19:56:50.841Z,2.10
2022-12-22T19:59:28.493Z,1.73
2022-12-22T20:02:02.335Z,1.80
2022-12-22T20:05:01.990Z,2.13
2022-12-22T20:07:32.959Z,1.75
2022-12-22T20:10:01.100Z,1.70
2022-12-22T20:12:33.096Z,1.85
2022-12-22T20:15:01.889Z,2.05
2022-12-22T20:17:31.412Z,2.03
2022-12-22T20:19:59.657Z,1.77
2022-12-22T20:22:28.298Z,1.95
2022-12-22T20:24:56.580Z,1.73
2022-12-22T20:27:30.198Z,2.00
2022-12-22T20:29:58.367Z,1.70
2022-12-22T20:32:28.231Z,2.13
2022-12-22T20:34:58.494Z,1.70
2022-12-22T20:37:27.670Z,1.55
2022-12-22T20:39:56.014Z,2.20
2022-12-22T20:42:27.056Z,2.15
2022-12-22T20:45:02.642Z,1.70
2022-12-22T20:47:33.359Z,1.73
2022-12-22T20:50:03.318Z,1.73
2022-12-22T20:52:31.435Z,1.48
2022-12-22T20:54:59.757Z,2.20
2022-12-22T20:57:28.549Z,1.85
2022-12-22T20:59:57.038Z,2.22
2022-12-22T21:02:28.828Z,1.63
2022-12-22T21:04:57.500Z,1.75
2022-12-22T21:07:27.181Z,1.70
2022-12-22T21:09:55.241Z,1.73
2022-12-22T21:12:23.483Z,1.63
2022-12-22T21:14:52.027Z,1.60
2022-12-22T21:17:20.972Z,1.40
2022-12-22T21:19:49.750Z,1.55
2022-12-22T21:22:17.942Z,1.58
2022-12-22T21:24:47.727Z,1.85
2022-12-22T21:27:20.079Z,2.70
2022-12-22T21:29:48.870Z,1.73
2022-12-22T21:32:17.471Z,1.60
2022-12-22T21:34:45.956Z,2.35
2022-12-22T21:37:18.705Z,1.70
2022-12-22T21:39:48.544Z,1.80
2022-12-22T21:42:18.341Z,1.98
2022-12-22T21:44:47.078Z,1.60
2022-12-22T21:47:18.033Z,1.88
2022-12-22T21:49:46.130Z,1.90
2022-12-22T21:52:14.243Z,2.10
2022-12-22T21:54:42.465Z,1.73
2022-12-22T21:57:17.079Z,2.20
2022-12-22T21:59:45.536Z,1.80
2022-12-22T22:02:17.506Z,2.30
2022-12-22T22:04:52.149Z,2.10
2022-12-22T22:07:22.594Z,2.03
2022-12-22T22:09:50.773Z,1.90
2022-12-22T22:12:37.479Z,1.90
2022-12-22T22:15:06.722Z,2.20
2022-12-22T22:17:35.375Z,1.95
2022-12-22T22:20:03.593Z,1.60
2022-12-22T22:22:31.858Z,1.73
2022-12-22T22:24:59.979Z,1.60
2022-12-22T22:27:29.804Z,2.33
2022-12-22T22:29:58.070Z,2.30
2022-12-22T22:32:26.262Z,2.30
2022-12-22T22:34:54.588Z,2.75
2022-12-22T22:37:23.043Z,1.90
2022-12-22T22:39:51.242Z,2.45
2022-12-22T22:42:19.497Z,1.88
2022-12-22T22:44:49.396Z,1.88
2022-12-22T22:47:17.623Z,1.92
2022-12-22T22:49:45.867Z,1.70
2022-12-22T22:52:13.969Z,2.28
2022-12-22T22:54:42.170Z,2.10
2022-12-22T22:57:10.527Z,2.20
2022-12-22T22:59:38.709Z,1.70
2022-12-22T23:02:08.550Z,2.00
2022-12-22T23:04:36.787Z,1.80
2022-12-22T23:07:04.884Z,1.70
2022-12-22T23:09:33.535Z,2.20
2022-12-22T23:12:01.794Z,1.77
2022-12-22T23:14:30.111Z,2.30
2022-12-22T23:16:58.324Z,2.20
2022-12-22T23:19:28.311Z,1.90
2022-12-22T23:21:56.466Z,1.90
2022-12-22T23:24:24.603Z,2.00
2022-12-22T23:26:53.219Z,2.47
2022-12-22T23:29:21.395Z,2.47
2022-12-22T23:31:49.661Z,2.70
2022-12-22T23:34:18.026Z,2.47
2022-12-22T23:36:47.752Z,2.67
2022-12-22T23:39:16.227Z,2.15
2022-12-22T23:41:44.473Z,2.20
2022-12-22T23:44:12.719Z,2.88
2022-12-22T23:46:41.885Z,2.30
2022-12-22T23:49:12.760Z,2.42
2022-12-22T23:51:41.217Z,2.42
2022-12-22T23:54:10.814Z,2.58
2022-12-22T23:56:39.081Z,2.55
2022-12-22T23:59:07.280Z,2.40
